sensor_id;sensor_type;location;lat;lon;timestamp;P1;durP1;ratioP1;P2;durP2;ratioP2
6852;SDS011;3465;42.144;24.722;2023-08-24T00:01:36;12.32;;;8.13;;
6852;SDS011;3465;42.144;24.722;2023-08-24T00:04:02;11.88;;;8.48;;
6852;SDS011;3465;42.144;24.722;2023-08-24T00:06:27;12.77;;;8.13;;
6852;SDS011;3465;42.144;24.722;2023-08-24T00:08:53;12.90;;;8.18;;
6852;SDS011;3465;42.144;24.722;2023-08-24T00:11:19;12.25;;;7.63;;
6852;SDS011;3465;42.144;24.722;2023-08-24T00:13:44;12.40;;;7.85;;
6852;SDS011;3465;42.144;24.722;2023-08-24T00:16:19;16.52;;;8.38;;
6852;SDS011;3465;42.144;24.722;2023-08-24T00:18:45;11.77;;;7.80;;
6852;SDS011;3465;42.144;24.722;2023-08-24T00:21:13;11.80;;;7.85;;
6852;SDS011;3465;42.144;24.722;2023-08-24T00:23:42;12.10;;;7.80;;
6852;SDS011;3465;42.144;24.722;2023-08-24T00:26:07;13.25;;;8.13;;
6852;SDS011;3465;42.144;24.722;2023-08-24T00:28:33;92.35;;;18.45;;
6852;SDS011;3465;42.144;24.722;2023-08-24T00:30:58;118.75;;;20.42;;
6852;SDS011;3465;42.144;24.722;2023-08-24T00:33:23;86.82;;;16.65;;
6852;SDS011;3465;42.144;24.722;2023-08-24T00:35:49;40.63;;;11.68;;
6852;SDS011;3465;42.144;24.722;2023-08-24T00:38:14;36.35;;;10.82;;
6852;SDS011;3465;42.144;24.722;2023-08-24T00:40:41;22.15;;;9.25;;
6852;SDS011;3465;42.144;24.722;2023-08-24T00:43:08;22.23;;;9.50;;
6852;SDS011;3465;42.144;24.722;2023-08-24T00:45:34;19.23;;;8.52;;
6852;SDS011;3465;42.144;24.722;2023-08-24T00:48:00;13.93;;;8.13;;
6852;SDS011;3465;42.144;24.722;2023-08-24T00:50:28;12.32;;;7.68;;
6852;SDS011;3465;42.144;24.722;2023-08-24T00:52:53;13.43;;;8.43;;
6852;SDS011;3465;42.144;24.722;2023-08-24T00:55:19;12.73;;;7.72;;
6852;SDS011;3465;42.144;24.722;2023-08-24T00:57:46;12.80;;;7.78;;
6852;SDS011;3465;42.144;24.722;2023-08-24T01:00:13;15.55;;;8.50;;
6852;SDS011;3465;42.144;24.722;2023-08-24T01:02:39;16.30;;;8.70;;
6852;SDS011;3465;42.144;24.722;2023-08-24T01:05:05;13.65;;;8.80;;
6852;SDS011;3465;42.144;24.722;2023-08-24T01:07:35;11.82;;;8.07;;
6852;SDS011;3465;42.144;24.722;2023-08-24T01:10:04;12.13;;;8.55;;
6852;SDS011;3465;42.144;24.722;2023-08-24T01:15:17;13.63;;;9.00;;
6852;SDS011;3465;42.144;24.722;2023-08-24T01:18:05;13.43;;;8.85;;
6852;SDS011;3465;42.144;24.722;2023-08-24T01:20:36;12.65;;;7.82;;
6852;SDS011;3465;42.144;24.722;2023-08-24T01:28:42;17.92;;;8.45;;
6852;SDS011;3465;42.144;24.722;2023-08-24T01:31:09;12.75;;;8.82;;
6852;SDS011;3465;42.144;24.722;2023-08-24T01:33:34;12.20;;;8.20;;
6852;SDS011;3465;42.144;24.722;2023-08-24T01:36:00;12.75;;;8.10;;
6852;SDS011;3465;42.144;24.722;2023-08-24T01:38:26;13.90;;;8.55;;
6852;SDS011;3465;42.144;24.722;2023-08-24T01:43:58;12.80;;;8.00;;
6852;SDS011;3465;42.144;24.722;2023-08-24T01:46:26;13.63;;;8.20;;
6852;SDS011;3465;42.144;24.722;2023-08-24T01:48:53;15.55;;;8.45;;
6852;SDS011;3465;42.144;24.722;2023-08-24T01:51:20;14.98;;;8.02;;
6852;SDS011;3465;42.144;24.722;2023-08-24T01:53:46;19.98;;;9.00;;
6852;SDS011;3465;42.144;24.722;2023-08-24T01:56:13;11.02;;;8.02;;
6852;SDS011;3465;42.144;24.722;2023-08-24T01:58:40;17.90;;;8.40;;
6852;SDS011;3465;42.144;24.722;2023-08-24T02:01:06;16.38;;;8.93;;
6852;SDS011;3465;42.144;24.722;2023-08-24T02:03:33;10.93;;;8.30;;
6852;SDS011;3465;42.144;24.722;2023-08-24T02:05:58;14.00;;;7.85;;
6852;SDS011;3465;42.144;24.722;2023-08-24T02:08:24;13.43;;;8.32;;
6852;SDS011;3465;42.144;24.722;2023-08-24T02:10:49;10.90;;;8.18;;
6852;SDS011;3465;42.144;24.722;2023-08-24T02:13:15;13.35;;;9.25;;
6852;SDS011;3465;42.144;24.722;2023-08-24T02:15:41;13.98;;;8.70;;
6852;SDS011;3465;42.144;24.722;2023-08-24T02:18:06;15.48;;;8.50;;
6852;SDS011;3465;42.144;24.722;2023-08-24T02:20:38;12.13;;;7.88;;
6852;SDS011;3465;42.144;24.722;2023-08-24T02:23:04;12.05;;;8.15;;
6852;SDS011;3465;42.144;24.722;2023-08-24T02:25:30;15.23;;;8.85;;
6852;SDS011;3465;42.144;24.722;2023-08-24T02:27:55;14.93;;;8.65;;
6852;SDS011;3465;42.144;24.722;2023-08-24T02:30:20;16.38;;;8.93;;
6852;SDS011;3465;42.144;24.722;2023-08-24T02:32:46;12.20;;;8.55;;
6852;SDS011;3465;42.144;24.722;2023-08-24T02:35:12;18.33;;;9.40;;
6852;SDS011;3465;42.144;24.722;2023-08-24T02:37:38;13.73;;;8.63;;
6852;SDS011;3465;42.144;24.722;2023-08-24T02:40:04;13.18;;;8.13;;
6852;SDS011;3465;42.144;24.722;2023-08-24T02:42:31;17.17;;;8.65;;
6852;SDS011;3465;42.144;24.722;2023-08-24T02:44:57;15.32;;;9.00;;
6852;SDS011;3465;42.144;24.722;2023-08-24T02:47:23;14.10;;;8.30;;
6852;SDS011;3465;42.144;24.722;2023-08-24T02:49:48;11.13;;;8.50;;
6852;SDS011;3465;42.144;24.722;2023-08-24T02:52:14;14.38;;;8.52;;
6852;SDS011;3465;42.144;24.722;2023-08-24T02:54:39;18.40;;;8.88;;
6852;SDS011;3465;42.144;24.722;2023-08-24T02:57:04;11.85;;;8.50;;
6852;SDS011;3465;42.144;24.722;2023-08-24T02:59:30;13.93;;;8.73;;
6852;SDS011;3465;42.144;24.722;2023-08-24T03:01:55;12.88;;;8.55;;
6852;SDS011;3465;42.144;24.722;2023-08-24T03:04:20;14.02;;;8.90;;
6852;SDS011;3465;42.144;24.722;2023-08-24T03:06:47;18.38;;;8.90;;
6852;SDS011;3465;42.144;24.722;2023-08-24T03:09:12;12.68;;;7.97;;
6852;SDS011;3465;42.144;24.722;2023-08-24T03:11:37;12.60;;;8.55;;
6852;SDS011;3465;42.144;24.722;2023-08-24T03:14:03;14.90;;;8.35;;
6852;SDS011;3465;42.144;24.722;2023-08-24T03:16:29;24.50;;;9.00;;
6852;SDS011;3465;42.144;24.722;2023-08-24T03:18:54;24.88;;;9.90;;
6852;SDS011;3465;42.144;24.722;2023-08-24T03:21:20;13.65;;;9.02;;
6852;SDS011;3465;42.144;24.722;2023-08-24T03:23:45;16.33;;;8.88;;
6852;SDS011;3465;42.144;24.722;2023-08-24T03:26:11;17.02;;;8.98;;
6852;SDS011;3465;42.144;24.722;2023-08-24T03:28:36;20.73;;;9.40;;
6852;SDS011;3465;42.144;24.722;2023-08-24T03:31:02;25.90;;;10.00;;
6852;SDS011;3465;42.144;24.722;2023-08-24T03:33:27;16.77;;;9.63;;
6852;SDS011;3465;42.144;24.722;2023-08-24T03:35:53;13.02;;;8.98;;
6852;SDS011;3465;42.144;24.722;2023-08-24T03:38:18;19.48;;;9.95;;
6852;SDS011;3465;42.144;24.722;2023-08-24T03:40:44;15.50;;;8.50;;
6852;SDS011;3465;42.144;24.722;2023-08-24T03:43:10;16.30;;;9.18;;
6852;SDS011;3465;42.144;24.722;2023-08-24T03:45:36;17.60;;;9.35;;
6852;SDS011;3465;42.144;24.722;2023-08-24T03:48:02;17.13;;;8.70;;
6852;SDS011;3465;42.144;24.722;2023-08-24T03:50:28;17.83;;;8.77;;
6852;SDS011;3465;42.144;24.722;2023-08-24T03:52:53;20.92;;;10.15;;
6852;SDS011;3465;42.144;24.722;2023-08-24T03:55:19;14.75;;;9.25;;
6852;SDS011;3465;42.144;24.722;2023-08-24T03:57:45;16.55;;;9.70;;
6852;SDS011;3465;42.144;24.722;2023-08-24T04:00:11;14.15;;;8.95;;
6852;SDS011;3465;42.144;24.722;2023-08-24T04:02:45;18.30;;;9.40;;
6852;SDS011;3465;42.144;24.722;2023-08-24T04:05:11;13.23;;;8.45;;
6852;SDS011;3465;42.144;24.722;2023-08-24T04:07:37;16.73;;;8.73;;
6852;SDS011;3465;42.144;24.722;2023-08-24T04:10:03;14.63;;;8.95;;
6852;SDS011;3465;42.144;24.722;2023-08-24T04:12:32;18.05;;;8.85;;
6852;SDS011;3465;42.144;24.722;2023-08-24T04:14:57;18.52;;;9.15;;
6852;SDS011;3465;42.144;24.722;2023-08-24T04:17:23;14.90;;;8.95;;
6852;SDS011;3465;42.144;24.722;2023-08-24T04:19:49;24.45;;;9.68;;
6852;SDS011;3465;42.144;24.722;2023-08-24T04:22:14;14.52;;;9.35;;
6852;SDS011;3465;42.144;24.722;2023-08-24T04:24:40;24.52;;;9.88;;
6852;SDS011;3465;42.144;24.722;2023-08-24T04:27:05;33.80;;;10.88;;
6852;SDS011;3465;42.144;24.722;2023-08-24T04:29:31;20.15;;;9.25;;
6852;SDS011;3465;42.144;24.722;2023-08-24T04:31:57;19.38;;;9.65;;
6852;SDS011;3465;42.144;24.722;2023-08-24T04:34:23;16.10;;;9.05;;
6852;SDS011;3465;42.144;24.722;2023-08-24T04:36:48;19.67;;;9.68;;
6852;SDS011;3465;42.144;24.722;2023-08-24T04:39:13;17.38;;;9.68;;
6852;SDS011;3465;42.144;24.722;2023-08-24T04:41:39;20.05;;;9.40;;
6852;SDS011;3465;42.144;24.722;2023-08-24T04:44:04;13.48;;;9.32;;
6852;SDS011;3465;42.144;24.722;2023-08-24T04:46:29;20.13;;;9.00;;
6852;SDS011;3465;42.144;24.722;2023-08-24T04:48:55;17.10;;;9.43;;
6852;SDS011;3465;42.144;24.722;2023-08-24T04:51:20;23.88;;;8.93;;
6852;SDS011;3465;42.144;24.722;2023-08-24T04:53:46;21.70;;;8.82;;
6852;SDS011;3465;42.144;24.722;2023-08-24T04:56:11;23.73;;;8.65;;
6852;SDS011;3465;42.144;24.722;2023-08-24T04:58:36;14.88;;;8.85;;
6852;SDS011;3465;42.144;24.722;2023-08-24T05:01:02;10.93;;;8.00;;
6852;SDS011;3465;42.144;24.722;2023-08-24T05:03:27;16.75;;;8.75;;
6852;SDS011;3465;42.144;24.722;2023-08-24T05:05:52;20.30;;;8.68;;
6852;SDS011;3465;42.144;24.722;2023-08-24T05:08:18;20.30;;;8.57;;
6852;SDS011;3465;42.144;24.722;2023-08-24T05:10:43;16.13;;;9.05;;
6852;SDS011;3465;42.144;24.722;2023-08-24T05:13:09;14.35;;;8.38;;
6852;SDS011;3465;42.144;24.722;2023-08-24T05:15:34;16.63;;;8.27;;
6852;SDS011;3465;42.144;24.722;2023-08-24T05:17:59;15.13;;;8.60;;
6852;SDS011;3465;42.144;24.722;2023-08-24T05:20:25;17.33;;;8.32;;
6852;SDS011;3465;42.144;24.722;2023-08-24T05:22:52;9.68;;;7.75;;
6852;SDS011;3465;42.144;24.722;2023-08-24T05:25:19;13.63;;;8.10;;
6852;SDS011;3465;42.144;24.722;2023-08-24T05:27:45;14.98;;;8.40;;
6852;SDS011;3465;42.144;24.722;2023-08-24T05:30:10;17.65;;;8.48;;
6852;SDS011;3465;42.144;24.722;2023-08-24T05:32:36;14.43;;;8.30;;
6852;SDS011;3465;42.144;24.722;2023-08-24T05:35:04;16.88;;;8.70;;
6852;SDS011;3465;42.144;24.722;2023-08-24T05:37:30;12.98;;;8.20;;
6852;SDS011;3465;42.144;24.722;2023-08-24T05:39:56;14.80;;;8.18;;
6852;SDS011;3465;42.144;24.722;2023-08-24T05:42:21;13.60;;;7.82;;
6852;SDS011;3465;42.144;24.722;2023-08-24T05:44:47;15.93;;;7.90;;
6852;SDS011;3465;42.144;24.722;2023-08-24T05:47:12;14.50;;;7.80;;
6852;SDS011;3465;42.144;24.722;2023-08-24T05:49:38;14.02;;;7.72;;
6852;SDS011;3465;42.144;24.722;2023-08-24T05:52:03;11.02;;;7.57;;
6852;SDS011;3465;42.144;24.722;2023-08-24T05:54:29;11.98;;;7.75;;
6852;SDS011;3465;42.144;24.722;2023-08-24T05:56:54;12.02;;;7.40;;
6852;SDS011;3465;42.144;24.722;2023-08-24T05:59:19;15.25;;;7.70;;
6852;SDS011;3465;42.144;24.722;2023-08-24T06:01:45;16.17;;;8.00;;
6852;SDS011;3465;42.144;24.722;2023-08-24T06:04:10;10.85;;;7.72;;
6852;SDS011;3465;42.144;24.722;2023-08-24T06:06:36;10.85;;;7.90;;
6852;SDS011;3465;42.144;24.722;2023-08-24T06:09:02;12.43;;;7.25;;
6852;SDS011;3465;42.144;24.722;2023-08-24T06:11:32;12.50;;;7.90;;
6852;SDS011;3465;42.144;24.722;2023-08-24T06:13:58;11.30;;;7.38;;
6852;SDS011;3465;42.144;24.722;2023-08-24T06:16:23;15.35;;;8.00;;
6852;SDS011;3465;42.144;24.722;2023-08-24T06:18:48;14.63;;;7.60;;
6852;SDS011;3465;42.144;24.722;2023-08-24T06:21:15;15.38;;;7.35;;
6852;SDS011;3465;42.144;24.722;2023-08-24T06:23:40;12.10;;;7.20;;
6852;SDS011;3465;42.144;24.722;2023-08-24T06:26:06;15.00;;;7.40;;
6852;SDS011;3465;42.144;24.722;2023-08-24T06:28:33;15.32;;;7.47;;
6852;SDS011;3465;42.144;24.722;2023-08-24T06:30:59;17.63;;;7.68;;
6852;SDS011;3465;42.144;24.722;2023-08-24T06:33:28;12.43;;;7.18;;
6852;SDS011;3465;42.144;24.722;2023-08-24T06:35:57;12.30;;;7.57;;
6852;SDS011;3465;42.144;24.722;2023-08-24T06:38:22;23.67;;;8.00;;
6852;SDS011;3465;42.144;24.722;2023-08-24T06:40:48;28.20;;;8.32;;
6852;SDS011;3465;42.144;24.722;2023-08-24T06:43:13;24.70;;;9.35;;
6852;SDS011;3465;42.144;24.722;2023-08-24T06:45:42;28.98;;;9.50;;
6852;SDS011;3465;42.144;24.722;2023-08-24T06:48:09;21.83;;;9.20;;
6852;SDS011;3465;42.144;24.722;2023-08-24T06:50:35;21.73;;;9.55;;
6852;SDS011;3465;42.144;24.722;2023-08-24T06:53:01;25.05;;;9.27;;
6852;SDS011;3465;42.144;24.722;2023-08-24T06:55:28;31.55;;;10.75;;
6852;SDS011;3465;42.144;24.722;2023-08-24T06:57:54;23.30;;;11.32;;
6852;SDS011;3465;42.144;24.722;2023-08-24T07:00:19;21.77;;;10.43;;
6852;SDS011;3465;42.144;24.722;2023-08-24T07:02:48;23.75;;;10.90;;
6852;SDS011;3465;42.144;24.722;2023-08-24T07:05:15;30.95;;;10.48;;
6852;SDS011;3465;42.144;24.722;2023-08-24T07:07:43;31.80;;;9.88;;
6852;SDS011;3465;42.144;24.722;2023-08-24T07:10:10;22.83;;;10.25;;
6852;SDS011;3465;42.144;24.722;2023-08-24T07:12:36;27.48;;;12.07;;
6852;SDS011;3465;42.144;24.722;2023-08-24T07:15:01;24.70;;;11.80;;
6852;SDS011;3465;42.144;24.722;2023-08-24T07:17:27;23.73;;;12.18;;
6852;SDS011;3465;42.144;24.722;2023-08-24T07:19:53;17.58;;;10.40;;
6852;SDS011;3465;42.144;24.722;2023-08-24T07:22:18;17.92;;;10.38;;
6852;SDS011;3465;42.144;24.722;2023-08-24T07:24:44;27.23;;;9.82;;
6852;SDS011;3465;42.144;24.722;2023-08-24T07:27:10;15.90;;;9.05;;
6852;SDS011;3465;42.144;24.722;2023-08-24T07:29:35;15.75;;;7.20;;
6852;SDS011;3465;42.144;24.722;2023-08-24T07:32:01;14.23;;;6.72;;
6852;SDS011;3465;42.144;24.722;2023-08-24T07:34:26;10.25;;;6.07;;
6852;SDS011;3465;42.144;24.722;2023-08-24T07:36:53;13.82;;;7.57;;
6852;SDS011;3465;42.144;24.722;2023-08-24T07:39:19;15.45;;;7.22;;
6852;SDS011;3465;42.144;24.722;2023-08-24T07:41:44;13.63;;;7.50;;
6852;SDS011;3465;42.144;24.722;2023-08-24T07:44:10;14.45;;;8.02;;
6852;SDS011;3465;42.144;24.722;2023-08-24T07:46:35;16.13;;;8.52;;
6852;SDS011;3465;42.144;24.722;2023-08-24T07:49:03;15.07;;;9.15;;
6852;SDS011;3465;42.144;24.722;2023-08-24T07:51:29;15.30;;;7.50;;
6852;SDS011;3465;42.144;24.722;2023-08-24T07:53:54;16.75;;;8.65;;
6852;SDS011;3465;42.144;24.722;2023-08-24T07:56:20;12.93;;;7.93;;
6852;SDS011;3465;42.144;24.722;2023-08-24T07:58:45;11.10;;;6.82;;
6852;SDS011;3465;42.144;24.722;2023-08-24T08:01:11;11.13;;;6.53;;
6852;SDS011;3465;42.144;24.722;2023-08-24T08:03:36;12.63;;;7.05;;
6852;SDS011;3465;42.144;24.722;2023-08-24T08:06:02;12.05;;;5.82;;
6852;SDS011;3465;42.144;24.722;2023-08-24T08:08:28;8.93;;;5.50;;
6852;SDS011;3465;42.144;24.722;2023-08-24T08:11:00;8.32;;;5.10;;
6852;SDS011;3465;42.144;24.722;2023-08-24T08:13:27;8.27;;;5.25;;
6852;SDS011;3465;42.144;24.722;2023-08-24T08:15:59;9.93;;;5.50;;
6852;SDS011;3465;42.144;24.722;2023-08-24T08:18:25;11.52;;;5.88;;
6852;SDS011;3465;42.144;24.722;2023-08-24T08:20:51;8.40;;;5.35;;
6852;SDS011;3465;42.144;24.722;2023-08-24T08:23:17;12.23;;;5.70;;
6852;SDS011;3465;42.144;24.722;2023-08-24T08:25:43;9.98;;;5.03;;
6852;SDS011;3465;42.144;24.722;2023-08-24T08:28:08;17.67;;;5.88;;
6852;SDS011;3465;42.144;24.722;2023-08-24T08:30:33;15.27;;;6.00;;
6852;SDS011;3465;42.144;24.722;2023-08-24T08:32:59;10.07;;;5.60;;
6852;SDS011;3465;42.144;24.722;2023-08-24T08:35:26;32.50;;;6.25;;
6852;SDS011;3465;42.144;24.722;2023-08-24T08:37:51;11.23;;;5.50;;
6852;SDS011;3465;42.144;24.722;2023-08-24T08:40:20;13.15;;;5.45;;
6852;SDS011;3465;42.144;24.722;2023-08-24T08:42:46;15.60;;;5.47;;
6852;SDS011;3465;42.144;24.722;2023-08-24T08:45:12;19.05;;;5.82;;
6852;SDS011;3465;42.144;24.722;2023-08-24T08:47:37;21.42;;;5.90;;
6852;SDS011;3465;42.144;24.722;2023-08-24T08:50:04;10.15;;;5.60;;
6852;SDS011;3465;42.144;24.722;2023-08-24T08:52:30;33.13;;;7.03;;
6852;SDS011;3465;42.144;24.722;2023-08-24T08:54:56;15.82;;;6.47;;
6852;SDS011;3465;42.144;24.722;2023-08-24T08:57:22;20.45;;;7.25;;
6852;SDS011;3465;42.144;24.722;2023-08-24T08:59:49;20.80;;;7.20;;
6852;SDS011;3465;42.144;24.722;2023-08-24T09:02:17;24.08;;;7.30;;
6852;SDS011;3465;42.144;24.722;2023-08-24T09:04:45;19.05;;;7.00;;
6852;SDS011;3465;42.144;24.722;2023-08-24T09:07:12;15.13;;;7.32;;
6852;SDS011;3465;42.144;24.722;2023-08-24T09:09:38;10.38;;;6.88;;
6852;SDS011;3465;42.144;24.722;2023-08-24T09:12:07;8.80;;;6.43;;
6852;SDS011;3465;42.144;24.722;2023-08-24T09:14:33;11.68;;;6.88;;
6852;SDS011;3465;42.144;24.722;2023-08-24T09:16:59;8.75;;;6.28;;
6852;SDS011;3465;42.144;24.722;2023-08-24T09:19:30;12.02;;;6.00;;
6852;SDS011;3465;42.144;24.722;2023-08-24T09:21:57;10.70;;;6.75;;
6852;SDS011;3465;42.144;24.722;2023-08-24T09:24:30;14.88;;;7.28;;
6852;SDS011;3465;42.144;24.722;2023-08-24T09:27:00;9.65;;;5.75;;
6852;SDS011;3465;42.144;24.722;2023-08-24T09:29:38;9.57;;;5.47;;
6852;SDS011;3465;42.144;24.722;2023-08-24T09:32:04;10.02;;;5.93;;
6852;SDS011;3465;42.144;24.722;2023-08-24T09:34:33;18.77;;;7.05;;
6852;SDS011;3465;42.144;24.722;2023-08-24T09:36:58;10.75;;;6.43;;
6852;SDS011;3465;42.144;24.722;2023-08-24T09:39:30;10.55;;;6.30;;
6852;SDS011;3465;42.144;24.722;2023-08-24T09:41:58;10.77;;;6.43;;
6852;SDS011;3465;42.144;24.722;2023-08-24T09:44:25;8.35;;;5.55;;
6852;SDS011;3465;42.144;24.722;2023-08-24T09:46:53;16.50;;;6.07;;
6852;SDS011;3465;42.144;24.722;2023-08-24T09:49:19;16.00;;;6.60;;
6852;SDS011;3465;42.144;24.722;2023-08-24T09:51:45;15.05;;;6.68;;
6852;SDS011;3465;42.144;24.722;2023-08-24T09:54:11;14.73;;;7.03;;
6852;SDS011;3465;42.144;24.722;2023-08-24T09:56:39;12.65;;;6.80;;
6852;SDS011;3465;42.144;24.722;2023-08-24T09:59:12;11.05;;;6.22;;
6852;SDS011;3465;42.144;24.722;2023-08-24T10:01:42;15.75;;;6.95;;
6852;SDS011;3465;42.144;24.722;2023-08-24T10:04:09;14.40;;;6.68;;
6852;SDS011;3465;42.144;24.722;2023-08-24T10:06:36;14.18;;;7.25;;
6852;SDS011;3465;42.144;24.722;2023-08-24T10:09:02;15.40;;;6.90;;
6852;SDS011;3465;42.144;24.722;2023-08-24T10:11:33;16.77;;;8.02;;
6852;SDS011;3465;42.144;24.722;2023-08-24T10:16:51;12.48;;;7.18;;
6852;SDS011;3465;42.144;24.722;2023-08-24T10:19:17;17.10;;;7.53;;
6852;SDS011;3465;42.144;24.722;2023-08-24T10:21:43;12.65;;;7.22;;
6852;SDS011;3465;42.144;24.722;2023-08-24T10:24:10;12.48;;;7.13;;
6852;SDS011;3465;42.144;24.722;2023-08-24T10:26:37;10.93;;;6.53;;
6852;SDS011;3465;42.144;24.722;2023-08-24T10:29:04;20.20;;;7.07;;
6852;SDS011;3465;42.144;24.722;2023-08-24T10:31:31;14.82;;;6.78;;
6852;SDS011;3465;42.144;24.722;2023-08-24T10:33:57;8.63;;;5.82;;
6852;SDS011;3465;42.144;24.722;2023-08-24T10:36:23;11.52;;;6.25;;
6852;SDS011;3465;42.144;24.722;2023-08-24T10:38:49;7.57;;;6.05;;
6852;SDS011;3465;42.144;24.722;2023-08-24T10:41:15;11.40;;;6.35;;
6852;SDS011;3465;42.144;24.722;2023-08-24T10:43:40;11.85;;;6.47;;
6852;SDS011;3465;42.144;24.722;2023-08-24T10:46:13;11.52;;;6.60;;
6852;SDS011;3465;42.144;24.722;2023-08-24T10:56:24;25.25;;;7.88;;
6852;SDS011;3465;42.144;24.722;2023-08-24T10:59:13;29.50;;;8.38;;
6852;SDS011;3465;42.144;24.722;2023-08-24T11:01:39;15.13;;;7.00;;
6852;SDS011;3465;42.144;24.722;2023-08-24T11:04:17;10.07;;;6.90;;
6852;SDS011;3465;42.144;24.722;2023-08-24T11:06:55;21.75;;;6.85;;
6852;SDS011;3465;42.144;24.722;2023-08-24T11:09:24;15.90;;;6.22;;
6852;SDS011;3465;42.144;24.722;2023-08-24T11:12:00;13.60;;;6.78;;
6852;SDS011;3465;42.144;24.722;2023-08-24T11:14:27;11.70;;;5.97;;
6852;SDS011;3465;42.144;24.722;2023-08-24T11:16:59;7.22;;;5.70;;
6852;SDS011;3465;42.144;24.722;2023-08-24T11:19:25;14.60;;;5.45;;
6852;SDS011;3465;42.144;24.722;2023-08-24T11:21:51;12.63;;;5.25;;
6852;SDS011;3465;42.144;24.722;2023-08-24T11:24:17;5.85;;;5.18;;
6852;SDS011;3465;42.144;24.722;2023-08-24T11:26:46;7.90;;;5.45;;
6852;SDS011;3465;42.144;24.722;2023-08-24T11:29:13;8.73;;;5.30;;
6852;SDS011;3465;42.144;24.722;2023-08-24T11:31:39;7.40;;;5.55;;
6852;SDS011;3465;42.144;24.722;2023-08-24T11:34:04;12.57;;;6.40;;
6852;SDS011;3465;42.144;24.722;2023-08-24T11:36:36;5.80;;;5.20;;
6852;SDS011;3465;42.144;24.722;2023-08-24T11:39:06;14.00;;;6.07;;
6852;SDS011;3465;42.144;24.722;2023-08-24T11:41:32;10.07;;;5.93;;
6852;SDS011;3465;42.144;24.722;2023-08-24T11:44:00;9.20;;;5.22;;
6852;SDS011;3465;42.144;24.722;2023-08-24T11:46:27;9.13;;;4.90;;
6852;SDS011;3465;42.144;24.722;2023-08-24T11:48:54;7.00;;;5.18;;
6852;SDS011;3465;42.144;24.722;2023-08-24T11:51:20;10.52;;;6.32;;
6852;SDS011;3465;42.144;24.722;2023-08-24T11:53:46;11.57;;;5.40;;
6852;SDS011;3465;42.144;24.722;2023-08-24T11:56:13;5.57;;;4.95;;
6852;SDS011;3465;42.144;24.722;2023-08-24T11:58:39;8.73;;;5.28;;
6852;SDS011;3465;42.144;24.722;2023-08-24T12:01:05;10.27;;;5.68;;
6852;SDS011;3465;42.144;24.722;2023-08-24T12:03:32;8.60;;;5.40;;
6852;SDS011;3465;42.144;24.722;2023-08-24T12:05:59;15.07;;;5.13;;
6852;SDS011;3465;42.144;24.722;2023-08-24T12:08:25;7.25;;;5.25;;
6852;SDS011;3465;42.144;24.722;2023-08-24T12:10:51;7.15;;;5.03;;
6852;SDS011;3465;42.144;24.722;2023-08-24T12:13:16;6.68;;;5.00;;
6852;SDS011;3465;42.144;24.722;2023-08-24T12:15:42;9.20;;;5.30;;
6852;SDS011;3465;42.144;24.722;2023-08-24T12:18:12;8.60;;;5.20;;
6852;SDS011;3465;42.144;24.722;2023-08-24T12:20:39;7.30;;;4.80;;
6852;SDS011;3465;42.144;24.722;2023-08-24T12:23:06;8.82;;;5.03;;
6852;SDS011;3465;42.144;24.722;2023-08-24T12:25:35;5.78;;;5.10;;
6852;SDS011;3465;42.144;24.722;2023-08-24T12:28:15;8.43;;;4.55;;
6852;SDS011;3465;42.144;24.722;2023-08-24T12:30:50;8.05;;;5.05;;
6852;SDS011;3465;42.144;24.722;2023-08-24T12:33:23;8.07;;;5.13;;
6852;SDS011;3465;42.144;24.722;2023-08-24T12:35:53;7.82;;;5.45;;
6852;SDS011;3465;42.144;24.722;2023-08-24T12:38:19;6.72;;;4.82;;
6852;SDS011;3465;42.144;24.722;2023-08-24T12:40:45;13.23;;;5.03;;
6852;SDS011;3465;42.144;24.722;2023-08-24T12:43:10;10.23;;;5.22;;
6852;SDS011;3465;42.144;24.722;2023-08-24T12:45:36;10.32;;;4.78;;
6852;SDS011;3465;42.144;24.722;2023-08-24T12:48:03;8.20;;;5.07;;
6852;SDS011;3465;42.144;24.722;2023-08-24T12:50:28;6.00;;;4.78;;
6852;SDS011;3465;42.144;24.722;2023-08-24T12:52:54;8.75;;;5.13;;
6852;SDS011;3465;42.144;24.722;2023-08-24T12:55:23;8.30;;;4.93;;
6852;SDS011;3465;42.144;24.722;2023-08-24T12:57:48;8.63;;;5.20;;
6852;SDS011;3465;42.144;24.722;2023-08-24T13:00:14;6.80;;;5.00;;
6852;SDS011;3465;42.144;24.722;2023-08-24T13:02:39;6.53;;;4.32;;
6852;SDS011;3465;42.144;24.722;2023-08-24T13:05:05;9.07;;;5.50;;
6852;SDS011;3465;42.144;24.722;2023-08-24T13:07:31;7.15;;;4.65;;
6852;SDS011;3465;42.144;24.722;2023-08-24T13:09:57;6.40;;;5.03;;
6852;SDS011;3465;42.144;24.722;2023-08-24T13:12:22;9.70;;;5.53;;
6852;SDS011;3465;42.144;24.722;2023-08-24T13:14:49;10.60;;;5.30;;
6852;SDS011;3465;42.144;24.722;2023-08-24T13:17:14;9.68;;;5.50;;
6852;SDS011;3465;42.144;24.722;2023-08-24T13:19:40;12.20;;;6.28;;
6852;SDS011;3465;42.144;24.722;2023-08-24T13:22:05;10.30;;;5.57;;
6852;SDS011;3465;42.144;24.722;2023-08-24T13:24:33;10.45;;;5.63;;
6852;SDS011;3465;42.144;24.722;2023-08-24T13:26:58;9.95;;;5.80;;
6852;SDS011;3465;42.144;24.722;2023-08-24T13:29:24;8.23;;;5.55;;
6852;SDS011;3465;42.144;24.722;2023-08-24T13:31:50;9.40;;;5.40;;
6852;SDS011;3465;42.144;24.722;2023-08-24T13:34:15;6.45;;;5.18;;
6852;SDS011;3465;42.144;24.722;2023-08-24T13:36:41;11.95;;;5.78;;
6852;SDS011;3465;42.144;24.722;2023-08-24T13:39:06;7.22;;;5.85;;
6852;SDS011;3465;42.144;24.722;2023-08-24T13:41:31;9.30;;;5.80;;
6852;SDS011;3465;42.144;24.722;2023-08-24T13:43:57;8.57;;;5.60;;
6852;SDS011;3465;42.144;24.722;2023-08-24T13:46:22;6.30;;;5.68;;
6852;SDS011;3465;42.144;24.722;2023-08-24T13:48:48;6.63;;;5.40;;
6852;SDS011;3465;42.144;24.722;2023-08-24T13:51:13;8.55;;;5.60;;
6852;SDS011;3465;42.144;24.722;2023-08-24T13:53:38;8.90;;;6.22;;
6852;SDS011;3465;42.144;24.722;2023-08-24T13:56:04;8.23;;;6.22;;
6852;SDS011;3465;42.144;24.722;2023-08-24T13:58:30;9.50;;;5.68;;
6852;SDS011;3465;42.144;24.722;2023-08-24T14:00:58;10.00;;;5.93;;
6852;SDS011;3465;42.144;24.722;2023-08-24T14:03:23;11.23;;;6.28;;
6852;SDS011;3465;42.144;24.722;2023-08-24T14:05:49;6.63;;;5.50;;
6852;SDS011;3465;42.144;24.722;2023-08-24T14:08:17;7.68;;;5.90;;
6852;SDS011;3465;42.144;24.722;2023-08-24T14:10:43;8.20;;;6.28;;
6852;SDS011;3465;42.144;24.722;2023-08-24T14:13:08;8.05;;;5.93;;
6852;SDS011;3465;42.144;24.722;2023-08-24T14:15:33;12.55;;;5.90;;
6852;SDS011;3465;42.144;24.722;2023-08-24T14:18:00;10.30;;;6.20;;
6852;SDS011;3465;42.144;24.722;2023-08-24T14:20:25;8.75;;;6.45;;
6852;SDS011;3465;42.144;24.722;2023-08-24T14:22:50;10.32;;;6.30;;
6852;SDS011;3465;42.144;24.722;2023-08-24T14:25:16;13.73;;;7.00;;
6852;SDS011;3465;42.144;24.722;2023-08-24T14:27:42;12.52;;;7.30;;
6852;SDS011;3465;42.144;24.722;2023-08-24T14:30:07;11.38;;;6.97;;
6852;SDS011;3465;42.144;24.722;2023-08-24T14:32:33;14.63;;;7.15;;
6852;SDS011;3465;42.144;24.722;2023-08-24T14:34:59;12.15;;;7.20;;
6852;SDS011;3465;42.144;24.722;2023-08-24T14:37:24;10.30;;;7.43;;
6852;SDS011;3465;42.144;24.722;2023-08-24T14:39:50;12.48;;;7.53;;
6852;SDS011;3465;42.144;24.722;2023-08-24T14:42:15;15.90;;;6.97;;
6852;SDS011;3465;42.144;24.722;2023-08-24T14:44:41;11.50;;;6.32;;
6852;SDS011;3465;42.144;24.722;2023-08-24T14:47:06;12.70;;;6.97;;
6852;SDS011;3465;42.144;24.722;2023-08-24T14:49:32;9.60;;;6.63;;
6852;SDS011;3465;42.144;24.722;2023-08-24T14:51:57;11.43;;;6.10;;
6852;SDS011;3465;42.144;24.722;2023-08-24T14:54:23;14.35;;;6.55;;
6852;SDS011;3465;42.144;24.722;2023-08-24T14:56:48;10.25;;;6.60;;
6852;SDS011;3465;42.144;24.722;2023-08-24T14:59:13;19.42;;;7.22;;
6852;SDS011;3465;42.144;24.722;2023-08-24T15:01:39;16.25;;;7.22;;
6852;SDS011;3465;42.144;24.722;2023-08-24T15:04:04;13.00;;;6.97;;
6852;SDS011;3465;42.144;24.722;2023-08-24T15:06:30;28.70;;;8.32;;
6852;SDS011;3465;42.144;24.722;2023-08-24T15:08:55;20.83;;;7.70;;